This is the latest recevied weather packets stored in our database for station/object K1RTA-1. If no packets are shown the sender has not sent any weather packets the latest 10 day(s).
| Time | Temp. | Humidity | Pressure | Rain* | Wind** | Luminosity | Snow |
|---|---|---|---|---|---|---|---|
| 1778016983 | 16.11° C | 75% | 1012.3 hPa | 0 mm | - | - | - |
| 1778016083 | 16.11° C | 75% | 1012 hPa | 0 mm | - | - | - |
| 1778015184 | 16.67° C | 73% | 1012.1 hPa | 0 mm | - | - | - |
| 1778014283 | 17.22° C | 72% | 1011.7 hPa | 0 mm | - | - | - |
| 1778013383 | 17.22° C | 72% | 1011.9 hPa | 0 mm | - | - | - |
| 1778012484 | 17.78° C | 71% | 1011.8 hPa | 0 mm | - | - | - |
| 1778011583 | 17.78° C | 70% | 1011.9 hPa | 0 mm | - | - | - |
| 1778010684 | 18.33° C | 69% | 1012 hPa | 0 mm | - | - | - |
| 1778009785 | 18.33° C | 69% | 1012 hPa | 0 mm | - | - | - |
| 1778008883 | 19.44° C | 66% | 1012.1 hPa | 0 mm | - | - | - |
| 1778007984 | 19.44° C | 67% | 1012 hPa | 0 mm | - | - | - |
| 1778007083 | 19.44° C | 67% | 1012.4 hPa | 0 mm | - | - | - |
| 1778006183 | 19.44° C | 67% | 1012.4 hPa | 0 mm | - | - | - |
| 1778005284 | 19.44° C | 68% | 1012.5 hPa | 0 mm | - | - | - |
| 1778004384 | 19.44° C | 66% | 1012.5 hPa | 0 mm | - | - | - |
| 1778003484 | 19.44° C | 67% | 1012.7 hPa | 0 mm | - | - | - |
| 1778002584 | 19.44° C | 68% | 1013 hPa | 0 mm | - | - | - |
| 1778001683 | 20° C | 67% | 1013 hPa | 0 mm | - | - | - |
| 1778000784 | 20° C | 66% | 1012.8 hPa | 0 mm | - | - | - |
| 1777999884 | 19.44° C | 70% | 1013.1 hPa | 0 mm | - | - | - |
| 1777998985 | 18.33° C | 70% | 1013.3 hPa | 0 mm | - | - | - |
| 1777998084 | 18.33° C | 70% | 1013 hPa | 0 mm | - | - | - |
| 1777997183 | 18.33° C | 70% | 1013.2 hPa | 0 mm | - | - | - |
| 1777996285 | 18.89° C | 71% | 1013.3 hPa | 0 mm | - | - | - |
| 1777995384 | 18.89° C | 69% | 1013.3 hPa | 0 mm | - | - | - |
* Rain latest hour (hover to see other rain measurements)
** Current wind speed in m/s (hover to see current wind gust speed)